Memphis, TN

1:52 PM CST on January 27, 2015 (GMT -0600)
Sea Isle | Change Station
CLOSE
Current Station
Personal Weather Station
Location: Memphis, TN
Elevation: 276 ft
Nearby Weather Stations

Elev 276 ft 35.09 °N, 89.89 °W | Updated 2 seconds ago

Partly Cloudy
Partly Cloudy
56.3 °F
Feels Like 56.3 °F
N
4.5
Wind Variable Wind from NW
Gusts 11.4 mph

Today
High -- | Low -- °F
--% Chance of Precip.
Yesterday
High -- | Low -- °F
Precip. -- in
7:02 AM 5:23 PM
First Quarter, 57% visible
Pressure 30.12 in
Visibility 10.0 miles
Clouds Few 4000 ft
Dew Point 39 °F
Humidity 52%
Rainfall 0.00 in
Snow Depth Not available.
UV 4 out of 12
Pollen 3.00 out of 12
Air Quality Not available.
Flu Activity Not available.
METAR KMEM 271854Z 34006KT 10SM FEW040 13/02 A3012 RMK AO2 SLP198 T01330017 $

More Conditions Fewer Conditions

Pressure 30.12 in
Visibility 10.0 miles
Clouds Few 4000 ft
Dew Point 39 °F
Humidity 52%
Rainfall 0.00 in
Snow Depth Not available.
UV 4 out of 12
Pollen 3.00 out of 12
Air Quality Not available.
Flu Activity Not available.
METAR KMEM 271854Z 34006KT 10SM FEW040 13/02 A3012 RMK AO2 SLP198 T01330017 $

More Conditions Fewer Conditions

10-Day Weather Forecast

Almanac

Astronomy

Jan. 27, 2015 Rise Set
Actual Time
Civil Twilight
Nautical Twilight
Astronomical Twilight
Moon
Length of Visible Light
Length of Day
Tomorrow will be .
, % of the Moon is Illuminated

Today's Extremes

State Highs State Lows

Community

WunderPhotos

Upload Photos

1,790,837 photos uploaded!

WunderBlogs® & News

Nearby

Air Quality

  Air Quality AQ Index Pollutant
Not available.

Snow Depth

Station Depth Elevation

Earthquake Activity

City Distance Mag. Time & Date
Minimum magnitude displayed is 2.5.

Coastal Water Temperatures

Place Temperature

Nearby Weather Stations